Terminal Aerodrome Forecast
Issued by NWS

Home | Current Version | Previous Version | Text Only | Print | Product List | Glossary Off
Versions: 1 2 3 4 5 6 7 8 9 10 11 12 13 14 15 16

000
FTUS43 KBIS 280600 AAA
TAFDIK
TAF AMD
KDIK 280652Z 2807/2906 26004KT P6SM FEW200
     FM280800 27007KT P6SM SCT170 SCT200
     FM281000 27007KT P6SM SCT140 BKN180
     FM281200 28011KT P6SM SCT110 BKN150
      TEMPO 2817/2819 SCT006 BKN011
     FM281900 32021G30KT P6SM VCSH OVC008
     FM290000 31018G26KT P6SM -SHSN OVC006=

USA.gov is the U.S. government's official web portal to all federal, state and local government web resources and services.